Portada
METAR-TAF:

METAR-TAF

Aeropuertos :

Gwalior, India

latitud: 26-17-36N, longitud: 78-13-40E, altitud: 188 m

METAR: falta

Hora: 21:46 (16:16 UTC)

Pronóstico

El informe se hizo hace 6 horas y 46 minutos, a las 09:30 UTC
Pronóstico válido del 27 a las 12 UTC al 27 a las 24 UTC
Viento 5 kt del oeste
Visibilidad: 6000 m
Evolucionando progresivamente
del 27 a las 22 UTC al 27 a las 23 UTC
Viento 2 kt con dirección variable
Visibilidad: 5000 m
Escasas nubes a una altura de 9000 ft
calima

TAF: VIGR 270930Z 2712/2724 28005KT 6000 NSC BECMG 2722/2723 VRB02KT 5000 HZ FEW090

Observaciones y pronósticos meteorológicos de más de 4000 aeropuertos (mensajes METAR y TAF).

Los puntos amarillos y rojos representan las estaciones disponibles.

Ponga el ratón en el punto deseado para ver el nombre de la estación.

Haga clic para ver las observaciones y los pronósticos meteorológicos.

Para cambiar el mapa : haga clic en los botones verdes con una cruz de color negro para hacer un zoom, en el botón verde con un guión para alejar o en las flechas verdes para mapas adyacentes.


METAR-TAF: